sensor_id;sensor_type;location;lat;lon;timestamp;temperature;humidity
24146;DHT22;12308;50.948;4.706;2022-12-13T00:01:31;-2.60;99.90
24146;DHT22;12308;50.948;4.706;2022-12-13T00:04:01;-2.60;99.90
24146;DHT22;12308;50.948;4.706;2022-12-13T00:06:28;-2.50;99.90
24146;DHT22;12308;50.948;4.706;2022-12-13T00:08:55;-2.50;99.90
24146;DHT22;12308;50.948;4.706;2022-12-13T00:11:21;-2.50;99.90
24146;DHT22;12308;50.948;4.706;2022-12-13T00:13:46;-2.50;99.90
24146;DHT22;12308;50.948;4.706;2022-12-13T00:16:18;-2.30;99.90
24146;DHT22;12308;50.948;4.706;2022-12-13T00:18:52;-2.20;99.90
24146;DHT22;12308;50.948;4.706;2022-12-13T00:21:21;-2.20;99.90
24146;DHT22;12308;50.948;4.706;2022-12-13T00:23:47;-2.30;99.90
24146;DHT22;12308;50.948;4.706;2022-12-13T00:26:16;-2.40;99.90
24146;DHT22;12308;50.948;4.706;2022-12-13T00:28:42;-2.50;99.90
24146;DHT22;12308;50.948;4.706;2022-12-13T00:31:08;-2.70;99.90
24146;DHT22;12308;50.948;4.706;2022-12-13T00:33:36;-2.60;99.90
24146;DHT22;12308;50.948;4.706;2022-12-13T00:36:03;-2.60;99.90
24146;DHT22;12308;50.948;4.706;2022-12-13T00:38:29;-2.40;99.90
24146;DHT22;12308;50.948;4.706;2022-12-13T00:40:55;-2.30;99.90
24146;DHT22;12308;50.948;4.706;2022-12-13T00:43:20;-2.20;99.90
24146;DHT22;12308;50.948;4.706;2022-12-13T00:45:46;-2.30;99.90
24146;DHT22;12308;50.948;4.706;2022-12-13T00:48:12;-2.30;99.90
24146;DHT22;12308;50.948;4.706;2022-12-13T00:50:38;-2.40;99.90
24146;DHT22;12308;50.948;4.706;2022-12-13T00:53:05;-2.50;99.90
24146;DHT22;12308;50.948;4.706;2022-12-13T00:55:31;-2.60;99.90
24146;DHT22;12308;50.948;4.706;2022-12-13T00:57:56;-2.40;99.90
24146;DHT22;12308;50.948;4.706;2022-12-13T01:00:22;-2.30;99.90
24146;DHT22;12308;50.948;4.706;2022-12-13T01:02:52;-2.40;99.90
24146;DHT22;12308;50.948;4.706;2022-12-13T01:05:17;-2.40;99.90
24146;DHT22;12308;50.948;4.706;2022-12-13T01:07:43;-2.40;99.90
24146;DHT22;12308;50.948;4.706;2022-12-13T01:10:10;-2.50;99.90
24146;DHT22;12308;50.948;4.706;2022-12-13T01:12:37;-2.60;99.90
24146;DHT22;12308;50.948;4.706;2022-12-13T01:15:05;-2.70;99.90
24146;DHT22;12308;50.948;4.706;2022-12-13T01:17:32;-2.80;99.90
24146;DHT22;12308;50.948;4.706;2022-12-13T01:19:58;-2.80;99.90
24146;DHT22;12308;50.948;4.706;2022-12-13T01:22:24;-2.70;99.90
24146;DHT22;12308;50.948;4.706;2022-12-13T01:24:50;-2.60;99.90
24146;DHT22;12308;50.948;4.706;2022-12-13T01:27:15;-2.60;99.90
24146;DHT22;12308;50.948;4.706;2022-12-13T01:29:41;-2.70;99.90
24146;DHT22;12308;50.948;4.706;2022-12-13T01:32:06;-2.70;99.90
24146;DHT22;12308;50.948;4.706;2022-12-13T01:34:32;-2.80;99.90
24146;DHT22;12308;50.948;4.706;2022-12-13T01:36:58;-2.80;99.90
24146;DHT22;12308;50.948;4.706;2022-12-13T01:39:23;-2.80;99.90
24146;DHT22;12308;50.948;4.706;2022-12-13T01:41:51;-2.80;99.90
24146;DHT22;12308;50.948;4.706;2022-12-13T01:47:40;-2.80;99.90
24146;DHT22;12308;50.948;4.706;2022-12-13T01:50:12;-2.80;99.90
24146;DHT22;12308;50.948;4.706;2022-12-13T01:52:39;-2.90;99.90
24146;DHT22;12308;50.948;4.706;2022-12-13T01:55:08;-2.80;99.90
24146;DHT22;12308;50.948;4.706;2022-12-13T01:57:36;-2.70;99.90
24146;DHT22;12308;50.948;4.706;2022-12-13T02:00:03;-2.60;99.90
24146;DHT22;12308;50.948;4.706;2022-12-13T02:02:29;-2.60;99.90
24146;DHT22;12308;50.948;4.706;2022-12-13T02:04:56;-2.80;99.90
24146;DHT22;12308;50.948;4.706;2022-12-13T02:07:30;-2.80;99.90
24146;DHT22;12308;50.948;4.706;2022-12-13T02:09:59;-2.90;99.90
24146;DHT22;12308;50.948;4.706;2022-12-13T02:12:28;-2.80;99.90
24146;DHT22;12308;50.948;4.706;2022-12-13T02:14:54;-2.90;99.90
24146;DHT22;12308;50.948;4.706;2022-12-13T02:34:12;-2.70;99.90
24146;DHT22;12308;50.948;4.706;2022-12-13T02:36:50;-2.80;99.90
24146;DHT22;12308;50.948;4.706;2022-12-13T02:39:25;-2.80;99.90
24146;DHT22;12308;50.948;4.706;2022-12-13T02:41:58;-2.80;99.90
24146;DHT22;12308;50.948;4.706;2022-12-13T02:44:35;-2.80;99.90
24146;DHT22;12308;50.948;4.706;2022-12-13T02:47:09;-2.80;99.90
24146;DHT22;12308;50.948;4.706;2022-12-13T02:49:38;-2.60;99.90
24146;DHT22;12308;50.948;4.706;2022-12-13T02:52:08;-2.60;99.90
24146;DHT22;12308;50.948;4.706;2022-12-13T02:54:34;-2.50;99.90
24146;DHT22;12308;50.948;4.706;2022-12-13T02:57:01;-2.50;99.90
24146;DHT22;12308;50.948;4.706;2022-12-13T02:59:30;-2.40;99.90
24146;DHT22;12308;50.948;4.706;2022-12-13T03:02:21;-2.60;99.90
24146;DHT22;12308;50.948;4.706;2022-12-13T03:08:11;-2.40;99.90
24146;DHT22;12308;50.948;4.706;2022-12-13T03:10:48;-2.50;99.90
24146;DHT22;12308;50.948;4.706;2022-12-13T03:13:25;-2.50;99.90
24146;DHT22;12308;50.948;4.706;2022-12-13T03:16:28;-2.60;99.90
24146;DHT22;12308;50.948;4.706;2022-12-13T03:19:00;-2.60;99.90
24146;DHT22;12308;50.948;4.706;2022-12-13T03:21:25;-2.60;99.90
24146;DHT22;12308;50.948;4.706;2022-12-13T03:23:51;-2.70;99.90
24146;DHT22;12308;50.948;4.706;2022-12-13T03:26:23;-2.70;99.90
24146;DHT22;12308;50.948;4.706;2022-12-13T03:28:49;-2.60;99.90
24146;DHT22;12308;50.948;4.706;2022-12-13T03:31:16;-2.60;99.90
24146;DHT22;12308;50.948;4.706;2022-12-13T03:33:41;-2.60;99.90
24146;DHT22;12308;50.948;4.706;2022-12-13T03:36:08;-2.70;99.90
24146;DHT22;12308;50.948;4.706;2022-12-13T03:38:35;-2.70;99.90
24146;DHT22;12308;50.948;4.706;2022-12-13T03:41:03;-2.80;99.90
24146;DHT22;12308;50.948;4.706;2022-12-13T03:43:30;-2.70;99.90
24146;DHT22;12308;50.948;4.706;2022-12-13T03:45:56;-2.70;99.90
24146;DHT22;12308;50.948;4.706;2022-12-13T03:48:22;-2.70;99.90
24146;DHT22;12308;50.948;4.706;2022-12-13T03:50:49;-2.70;99.90
24146;DHT22;12308;50.948;4.706;2022-12-13T03:53:15;-2.70;99.90
24146;DHT22;12308;50.948;4.706;2022-12-13T03:55:40;-2.70;99.90
24146;DHT22;12308;50.948;4.706;2022-12-13T03:58:06;-2.70;99.90
24146;DHT22;12308;50.948;4.706;2022-12-13T04:00:32;-2.70;99.90
24146;DHT22;12308;50.948;4.706;2022-12-13T04:02:57;-2.60;99.90
24146;DHT22;12308;50.948;4.706;2022-12-13T04:05:23;-2.60;99.90
24146;DHT22;12308;50.948;4.706;2022-12-13T04:07:48;-2.70;99.90
24146;DHT22;12308;50.948;4.706;2022-12-13T04:10:14;-2.60;99.90
24146;DHT22;12308;50.948;4.706;2022-12-13T04:12:40;-2.70;99.90
24146;DHT22;12308;50.948;4.706;2022-12-13T04:15:25;-2.70;99.90
24146;DHT22;12308;50.948;4.706;2022-12-13T04:17:50;-2.80;99.90
24146;DHT22;12308;50.948;4.706;2022-12-13T04:20:16;-2.80;99.90
24146;DHT22;12308;50.948;4.706;2022-12-13T04:22:42;-2.80;99.90
24146;DHT22;12308;50.948;4.706;2022-12-13T04:25:08;-2.70;99.90
24146;DHT22;12308;50.948;4.706;2022-12-13T04:27:33;-2.70;99.90
24146;DHT22;12308;50.948;4.706;2022-12-13T04:29:59;-2.60;99.90
24146;DHT22;12308;50.948;4.706;2022-12-13T04:32:25;-2.70;99.90
24146;DHT22;12308;50.948;4.706;2022-12-13T04:34:50;-2.80;99.90
24146;DHT22;12308;50.948;4.706;2022-12-13T04:37:16;-2.70;99.90
24146;DHT22;12308;50.948;4.706;2022-12-13T04:39:42;-2.80;99.90
24146;DHT22;12308;50.948;4.706;2022-12-13T04:42:08;-2.70;99.90
24146;DHT22;12308;50.948;4.706;2022-12-13T04:44:33;-2.80;99.90
24146;DHT22;12308;50.948;4.706;2022-12-13T04:46:59;-2.80;99.90
24146;DHT22;12308;50.948;4.706;2022-12-13T04:49:28;-2.80;99.90
24146;DHT22;12308;50.948;4.706;2022-12-13T04:51:54;-2.80;99.90
24146;DHT22;12308;50.948;4.706;2022-12-13T04:54:20;-2.80;99.90
24146;DHT22;12308;50.948;4.706;2022-12-13T04:56:45;-2.90;99.90
24146;DHT22;12308;50.948;4.706;2022-12-13T04:59:11;-2.90;99.90
24146;DHT22;12308;50.948;4.706;2022-12-13T05:01:37;-3.00;99.90
24146;DHT22;12308;50.948;4.706;2022-12-13T05:04:03;-3.00;99.90
24146;DHT22;12308;50.948;4.706;2022-12-13T05:06:29;-2.90;99.90
24146;DHT22;12308;50.948;4.706;2022-12-13T05:08:54;-2.80;99.90
24146;DHT22;12308;50.948;4.706;2022-12-13T05:11:20;-3.00;99.90
24146;DHT22;12308;50.948;4.706;2022-12-13T05:13:45;-3.20;99.90
24146;DHT22;12308;50.948;4.706;2022-12-13T05:16:11;-3.30;99.90
24146;DHT22;12308;50.948;4.706;2022-12-13T05:18:38;-3.30;99.90
24146;DHT22;12308;50.948;4.706;2022-12-13T05:21:05;-3.40;99.90
24146;DHT22;12308;50.948;4.706;2022-12-13T05:23:32;-3.30;99.90
24146;DHT22;12308;50.948;4.706;2022-12-13T05:25:58;-3.30;99.90
24146;DHT22;12308;50.948;4.706;2022-12-13T05:28:24;-3.20;99.90
24146;DHT22;12308;50.948;4.706;2022-12-13T05:30:56;-3.20;99.90
24146;DHT22;12308;50.948;4.706;2022-12-13T05:33:23;-3.40;99.90
24146;DHT22;12308;50.948;4.706;2022-12-13T05:35:50;-3.50;99.90
24146;DHT22;12308;50.948;4.706;2022-12-13T05:38:16;-3.50;99.90
24146;DHT22;12308;50.948;4.706;2022-12-13T05:40:41;-3.40;99.90
24146;DHT22;12308;50.948;4.706;2022-12-13T05:43:09;-3.30;99.90
24146;DHT22;12308;50.948;4.706;2022-12-13T05:45:35;-3.20;99.90
24146;DHT22;12308;50.948;4.706;2022-12-13T05:48:01;-3.30;99.90
24146;DHT22;12308;50.948;4.706;2022-12-13T05:50:27;-3.40;99.90
24146;DHT22;12308;50.948;4.706;2022-12-13T05:52:52;-3.30;99.90
24146;DHT22;12308;50.948;4.706;2022-12-13T05:55:18;-3.30;99.90
24146;DHT22;12308;50.948;4.706;2022-12-13T05:57:44;-3.40;99.90
24146;DHT22;12308;50.948;4.706;2022-12-13T06:00:10;-3.40;99.90
24146;DHT22;12308;50.948;4.706;2022-12-13T06:02:37;-3.30;99.90
24146;DHT22;12308;50.948;4.706;2022-12-13T06:05:03;-3.30;99.90
24146;DHT22;12308;50.948;4.706;2022-12-13T06:07:30;-3.20;99.90
24146;DHT22;12308;50.948;4.706;2022-12-13T06:09:55;-3.10;99.90
24146;DHT22;12308;50.948;4.706;2022-12-13T06:12:21;-2.90;99.90
24146;DHT22;12308;50.948;4.706;2022-12-13T06:14:47;-2.80;99.90
24146;DHT22;12308;50.948;4.706;2022-12-13T06:17:13;-2.80;99.90
24146;DHT22;12308;50.948;4.706;2022-12-13T06:19:38;-3.00;99.90
24146;DHT22;12308;50.948;4.706;2022-12-13T06:22:04;-3.00;99.90
24146;DHT22;12308;50.948;4.706;2022-12-13T06:24:31;-3.00;99.90
24146;DHT22;12308;50.948;4.706;2022-12-13T06:26:56;-3.00;99.90
24146;DHT22;12308;50.948;4.706;2022-12-13T06:29:24;-3.10;99.90
24146;DHT22;12308;50.948;4.706;2022-12-13T06:32:01;-3.10;99.90
24146;DHT22;12308;50.948;4.706;2022-12-13T06:34:27;-3.00;99.90
24146;DHT22;12308;50.948;4.706;2022-12-13T06:36:53;-3.20;99.90
24146;DHT22;12308;50.948;4.706;2022-12-13T06:39:19;-3.20;99.90
24146;DHT22;12308;50.948;4.706;2022-12-13T06:41:45;-3.10;99.90
24146;DHT22;12308;50.948;4.706;2022-12-13T06:44:11;-3.10;99.90
24146;DHT22;12308;50.948;4.706;2022-12-13T06:46:37;-3.00;99.90
24146;DHT22;12308;50.948;4.706;2022-12-13T06:49:03;-3.10;99.90
24146;DHT22;12308;50.948;4.706;2022-12-13T06:51:28;-3.30;99.90
24146;DHT22;12308;50.948;4.706;2022-12-13T06:53:54;-3.20;99.90
24146;DHT22;12308;50.948;4.706;2022-12-13T06:56:21;-3.40;99.90
24146;DHT22;12308;50.948;4.706;2022-12-13T06:58:47;-3.20;99.90
24146;DHT22;12308;50.948;4.706;2022-12-13T07:01:17;-3.20;99.90
24146;DHT22;12308;50.948;4.706;2022-12-13T07:03:44;-3.10;99.90
24146;DHT22;12308;50.948;4.706;2022-12-13T07:06:15;-3.20;99.90
24146;DHT22;12308;50.948;4.706;2022-12-13T07:08:43;-3.20;99.90
24146;DHT22;12308;50.948;4.706;2022-12-13T07:11:17;-3.20;99.90
24146;DHT22;12308;50.948;4.706;2022-12-13T07:13:43;-3.20;99.90
24146;DHT22;12308;50.948;4.706;2022-12-13T07:16:09;-3.40;99.90
24146;DHT22;12308;50.948;4.706;2022-12-13T07:18:36;-3.50;99.90
24146;DHT22;12308;50.948;4.706;2022-12-13T07:21:09;-3.50;99.90
24146;DHT22;12308;50.948;4.706;2022-12-13T07:23:36;-3.60;99.90
24146;DHT22;12308;50.948;4.706;2022-12-13T07:26:03;-3.60;99.90
24146;DHT22;12308;50.948;4.706;2022-12-13T07:28:31;-3.70;99.90
24146;DHT22;12308;50.948;4.706;2022-12-13T07:31:00;-3.70;99.90
24146;DHT22;12308;50.948;4.706;2022-12-13T07:33:26;-3.70;99.90
24146;DHT22;12308;50.948;4.706;2022-12-13T07:36:18;-3.70;99.90
24146;DHT22;12308;50.948;4.706;2022-12-13T07:38:52;-3.70;99.90
24146;DHT22;12308;50.948;4.706;2022-12-13T07:41:18;-3.60;99.90
24146;DHT22;12308;50.948;4.706;2022-12-13T07:43:44;-3.70;99.90
24146;DHT22;12308;50.948;4.706;2022-12-13T07:46:10;-3.70;99.90
24146;DHT22;12308;50.948;4.706;2022-12-13T07:48:36;-3.90;99.90
24146;DHT22;12308;50.948;4.706;2022-12-13T07:51:07;-3.90;99.90
24146;DHT22;12308;50.948;4.706;2022-12-13T07:53:35;-3.90;99.90
24146;DHT22;12308;50.948;4.706;2022-12-13T07:56:05;-3.90;99.90
24146;DHT22;12308;50.948;4.706;2022-12-13T07:58:31;-3.80;99.90
24146;DHT22;12308;50.948;4.706;2022-12-13T08:01:02;-4.00;99.90
24146;DHT22;12308;50.948;4.706;2022-12-13T08:03:29;-4.00;99.90
24146;DHT22;12308;50.948;4.706;2022-12-13T08:05:59;-3.90;99.90
24146;DHT22;12308;50.948;4.706;2022-12-13T08:08:25;-3.80;99.90
24146;DHT22;12308;50.948;4.706;2022-12-13T08:10:50;-3.80;99.90
24146;DHT22;12308;50.948;4.706;2022-12-13T08:13:16;-3.80;99.90
24146;DHT22;12308;50.948;4.706;2022-12-13T08:15:42;-3.70;99.90
24146;DHT22;12308;50.948;4.706;2022-12-13T08:18:07;-3.60;99.90
24146;DHT22;12308;50.948;4.706;2022-12-13T08:20:33;-3.50;99.90
24146;DHT22;12308;50.948;4.706;2022-12-13T08:22:58;-3.30;99.90
24146;DHT22;12308;50.948;4.706;2022-12-13T08:25:25;-3.20;99.90
24146;DHT22;12308;50.948;4.706;2022-12-13T08:27:51;-3.20;99.90
24146;DHT22;12308;50.948;4.706;2022-12-13T08:30:17;-3.10;99.90
24146;DHT22;12308;50.948;4.706;2022-12-13T08:32:43;-3.00;99.90
24146;DHT22;12308;50.948;4.706;2022-12-13T08:35:09;-3.00;99.90
24146;DHT22;12308;50.948;4.706;2022-12-13T08:37:35;-2.90;99.90
24146;DHT22;12308;50.948;4.706;2022-12-13T08:40:00;-2.90;99.90
24146;DHT22;12308;50.948;4.706;2022-12-13T08:42:28;-2.80;99.90
24146;DHT22;12308;50.948;4.706;2022-12-13T08:44:53;-2.70;99.90
24146;DHT22;12308;50.948;4.706;2022-12-13T08:47:21;-2.70;99.90
24146;DHT22;12308;50.948;4.706;2022-12-13T08:49:47;-2.50;99.90
24146;DHT22;12308;50.948;4.706;2022-12-13T08:52:13;-2.40;99.90
24146;DHT22;12308;50.948;4.706;2022-12-13T08:54:38;-2.30;99.90
24146;DHT22;12308;50.948;4.706;2022-12-13T08:57:04;-2.20;99.90
24146;DHT22;12308;50.948;4.706;2022-12-13T08:59:30;-2.30;99.90
24146;DHT22;12308;50.948;4.706;2022-12-13T09:01:56;-2.20;99.90
24146;DHT22;12308;50.948;4.706;2022-12-13T09:04:21;-2.20;99.90
24146;DHT22;12308;50.948;4.706;2022-12-13T09:06:47;-2.10;99.90
24146;DHT22;12308;50.948;4.706;2022-12-13T09:09:13;-2.00;99.90
24146;DHT22;12308;50.948;4.706;2022-12-13T09:11:39;-2.00;99.90
24146;DHT22;12308;50.948;4.706;2022-12-13T09:14:06;-1.80;99.90
24146;DHT22;12308;50.948;4.706;2022-12-13T09:16:31;-1.80;99.90
24146;DHT22;12308;50.948;4.706;2022-12-13T09:19:01;-1.80;99.90
24146;DHT22;12308;50.948;4.706;2022-12-13T09:21:27;-1.50;99.90
24146;DHT22;12308;50.948;4.706;2022-12-13T09:23:54;-1.50;99.90
24146;DHT22;12308;50.948;4.706;2022-12-13T09:26:20;-1.50;99.90
24146;DHT22;12308;50.948;4.706;2022-12-13T09:28:45;-1.40;99.90
24146;DHT22;12308;50.948;4.706;2022-12-13T09:31:16;-1.70;99.90
24146;DHT22;12308;50.948;4.706;2022-12-13T09:33:43;-1.70;99.90
24146;DHT22;12308;50.948;4.706;2022-12-13T09:36:12;-1.70;99.90
24146;DHT22;12308;50.948;4.706;2022-12-13T09:38:37;-1.60;99.90
24146;DHT22;12308;50.948;4.706;2022-12-13T09:41:27;-1.40;99.90
24146;DHT22;12308;50.948;4.706;2022-12-13T09:43:57;-1.10;99.90
24146;DHT22;12308;50.948;4.706;2022-12-13T09:46:31;-1.00;99.90
24146;DHT22;12308;50.948;4.706;2022-12-13T09:48:58;-0.80;99.90
24146;DHT22;12308;50.948;4.706;2022-12-13T09:51:26;-0.80;99.90
24146;DHT22;12308;50.948;4.706;2022-12-13T09:53:52;-0.80;99.90
24146;DHT22;12308;50.948;4.706;2022-12-13T09:56:20;-0.90;99.90
24146;DHT22;12308;50.948;4.706;2022-12-13T09:58:50;-0.90;99.90
24146;DHT22;12308;50.948;4.706;2022-12-13T10:01:17;-0.90;99.90
24146;DHT22;12308;50.948;4.706;2022-12-13T10:03:47;-1.00;99.90
24146;DHT22;12308;50.948;4.706;2022-12-13T10:06:14;-0.90;99.90
24146;DHT22;12308;50.948;4.706;2022-12-13T10:08:44;-0.70;99.90
24146;DHT22;12308;50.948;4.706;2022-12-13T10:11:13;-0.80;99.90
24146;DHT22;12308;50.948;4.706;2022-12-13T10:13:49;-0.70;99.90
24146;DHT22;12308;50.948;4.706;2022-12-13T10:16:41;-0.60;99.90
24146;DHT22;12308;50.948;4.706;2022-12-13T10:21:43;-0.50;99.90
24146;DHT22;12308;50.948;4.706;2022-12-13T10:24:20;-0.30;99.90
24146;DHT22;12308;50.948;4.706;2022-12-13T10:26:47;-0.30;99.90
24146;DHT22;12308;50.948;4.706;2022-12-13T10:29:12;-0.30;99.90
24146;DHT22;12308;50.948;4.706;2022-12-13T10:31:44;-0.10;99.90
24146;DHT22;12308;50.948;4.706;2022-12-13T10:34:23;0.10;99.90
24146;DHT22;12308;50.948;4.706;2022-12-13T10:36:50;0.10;99.90
24146;DHT22;12308;50.948;4.706;2022-12-13T10:39:34;-0.10;99.90
24146;DHT22;12308;50.948;4.706;2022-12-13T10:42:04;-0.20;99.90
24146;DHT22;12308;50.948;4.706;2022-12-13T10:44:29;-0.10;99.90
24146;DHT22;12308;50.948;4.706;2022-12-13T10:47:02;-0.10;99.90
24146;DHT22;12308;50.948;4.706;2022-12-13T10:52:18;0.20;99.90
24146;DHT22;12308;50.948;4.706;2022-12-13T10:54:45;0.10;99.90
24146;DHT22;12308;50.948;4.706;2022-12-13T10:57:12;0.10;99.90
24146;DHT22;12308;50.948;4.706;2022-12-13T10:59:38;0.10;99.90
24146;DHT22;12308;50.948;4.706;2022-12-13T11:04:55;0.40;99.90
24146;DHT22;12308;50.948;4.706;2022-12-13T11:07:32;0.50;99.90
24146;DHT22;12308;50.948;4.706;2022-12-13T11:10:15;0.70;99.90
24146;DHT22;12308;50.948;4.706;2022-12-13T11:12:41;0.80;99.90
24146;DHT22;12308;50.948;4.706;2022-12-13T11:15:15;0.80;99.90
24146;DHT22;12308;50.948;4.706;2022-12-13T11:17:47;0.90;99.90
24146;DHT22;12308;50.948;4.706;2022-12-13T11:20:35;0.90;99.90
24146;DHT22;12308;50.948;4.706;2022-12-13T11:23:05;0.80;99.90
24146;DHT22;12308;50.948;4.706;2022-12-13T11:25:39;0.80;99.90
24146;DHT22;12308;50.948;4.706;2022-12-13T11:28:09;0.70;99.90
24146;DHT22;12308;50.948;4.706;2022-12-13T11:30:56;0.80;99.90
24146;DHT22;12308;50.948;4.706;2022-12-13T11:33:48;0.90;99.90
24146;DHT22;12308;50.948;4.706;2022-12-13T11:36:38;0.90;99.90
24146;DHT22;12308;50.948;4.706;2022-12-13T11:39:29;0.90;99.90
24146;DHT22;12308;50.948;4.706;2022-12-13T11:44:55;1.10;99.90
24146;DHT22;12308;50.948;4.706;2022-12-13T11:47:31;1.40;99.90
24146;DHT22;12308;50.948;4.706;2022-12-13T11:50:00;1.50;99.90
24146;DHT22;12308;50.948;4.706;2022-12-13T11:52:45;1.60;99.90
24146;DHT22;12308;50.948;4.706;2022-12-13T11:55:32;1.70;99.90
24146;DHT22;12308;50.948;4.706;2022-12-13T11:58:13;2.00;99.90
24146;DHT22;12308;50.948;4.706;2022-12-13T12:00:50;2.10;99.90
24146;DHT22;12308;50.948;4.706;2022-12-13T12:03:35;2.20;99.90
24146;DHT22;12308;50.948;4.706;2022-12-13T12:06:21;2.20;99.90
24146;DHT22;12308;50.948;4.706;2022-12-13T12:08:52;2.30;99.90
24146;DHT22;12308;50.948;4.706;2022-12-13T12:14:00;1.90;99.90
24146;DHT22;12308;50.948;4.706;2022-12-13T12:16:54;2.00;99.90
24146;DHT22;12308;50.948;4.706;2022-12-13T12:19:37;2.00;99.90
24146;DHT22;12308;50.948;4.706;2022-12-13T12:32:32;2.20;99.90
24146;DHT22;12308;50.948;4.706;2022-12-13T12:48:36;2.40;99.90
24146;DHT22;12308;50.948;4.706;2022-12-13T12:51:14;2.40;99.90
24146;DHT22;12308;50.948;4.706;2022-12-13T12:53:52;2.60;99.90
24146;DHT22;12308;50.948;4.706;2022-12-13T12:56:37;2.90;99.90
24146;DHT22;12308;50.948;4.706;2022-12-13T12:59:26;2.80;99.90
24146;DHT22;12308;50.948;4.706;2022-12-13T13:02:04;2.60;99.90
24146;DHT22;12308;50.948;4.706;2022-12-13T13:04:36;2.50;99.90
24146;DHT22;12308;50.948;4.706;2022-12-13T13:07:20;2.50;99.90
24146;DHT22;12308;50.948;4.706;2022-12-13T13:09:47;2.50;99.90
24146;DHT22;12308;50.948;4.706;2022-12-13T13:12:13;2.70;99.90
24146;DHT22;12308;50.948;4.706;2022-12-13T13:14:40;2.60;99.90
24146;DHT22;12308;50.948;4.706;2022-12-13T13:22:36;2.70;99.90
24146;DHT22;12308;50.948;4.706;2022-12-13T13:27:40;2.60;99.90
24146;DHT22;12308;50.948;4.706;2022-12-13T13:32:42;2.60;99.90
24146;DHT22;12308;50.948;4.706;2022-12-13T13:37:57;2.40;99.90
24146;DHT22;12308;50.948;4.706;2022-12-13T13:40:37;2.50;99.90
24146;DHT22;12308;50.948;4.706;2022-12-13T13:43:13;2.30;99.90
24146;DHT22;12308;50.948;4.706;2022-12-13T13:46:09;2.40;99.90
24146;DHT22;12308;50.948;4.706;2022-12-13T13:48:52;2.60;99.90
24146;DHT22;12308;50.948;4.706;2022-12-13T13:54:32;2.40;99.90
24146;DHT22;12308;50.948;4.706;2022-12-13T13:57:09;2.30;99.90
24146;DHT22;12308;50.948;4.706;2022-12-13T14:22:33;1.60;99.90
24146;DHT22;12308;50.948;4.706;2022-12-13T14:28:02;1.70;99.90
24146;DHT22;12308;50.948;4.706;2022-12-13T14:30:29;1.90;99.90
24146;DHT22;12308;50.948;4.706;2022-12-13T14:32:55;1.80;99.90
24146;DHT22;12308;50.948;4.706;2022-12-13T14:38:04;1.50;99.90
24146;DHT22;12308;50.948;4.706;2022-12-13T14:40:33;1.50;99.90
24146;DHT22;12308;50.948;4.706;2022-12-13T14:42:59;1.60;99.90
24146;DHT22;12308;50.948;4.706;2022-12-13T14:45:29;1.60;99.90
24146;DHT22;12308;50.948;4.706;2022-12-13T14:47:58;1.60;99.90
24146;DHT22;12308;50.948;4.706;2022-12-13T14:50:26;1.60;99.90
24146;DHT22;12308;50.948;4.706;2022-12-13T14:52:53;1.60;99.90
24146;DHT22;12308;50.948;4.706;2022-12-13T14:57:56;1.60;99.90
24146;DHT22;12308;50.948;4.706;2022-12-13T15:00:29;1.60;99.90
24146;DHT22;12308;50.948;4.706;2022-12-13T15:02:57;1.40;99.90
24146;DHT22;12308;50.948;4.706;2022-12-13T15:05:44;1.30;99.90
24146;DHT22;12308;50.948;4.706;2022-12-13T15:08:16;1.30;99.90
24146;DHT22;12308;50.948;4.706;2022-12-13T15:10:52;1.40;99.90
24146;DHT22;12308;50.948;4.706;2022-12-13T15:13:39;1.40;99.90
24146;DHT22;12308;50.948;4.706;2022-12-13T15:18:38;1.30;99.90
24146;DHT22;12308;50.948;4.706;2022-12-13T15:21:19;1.30;99.90
24146;DHT22;12308;50.948;4.706;2022-12-13T15:23:45;1.20;99.90
24146;DHT22;12308;50.948;4.706;2022-12-13T15:26:20;1.10;99.90
24146;DHT22;12308;50.948;4.706;2022-12-13T15:28:50;1.00;99.90
24146;DHT22;12308;50.948;4.706;2022-12-13T15:31:17;0.90;99.90
24146;DHT22;12308;50.948;4.706;2022-12-13T15:33:44;0.90;99.90
24146;DHT22;12308;50.948;4.706;2022-12-13T15:36:23;1.10;99.90
24146;DHT22;12308;50.948;4.706;2022-12-13T15:38:59;1.00;99.90
24146;DHT22;12308;50.948;4.706;2022-12-13T15:41:29;1.10;99.90
24146;DHT22;12308;50.948;4.706;2022-12-13T15:44:00;0.90;99.90
24146;DHT22;12308;50.948;4.706;2022-12-13T15:46:29;0.70;99.90
24146;DHT22;12308;50.948;4.706;2022-12-13T15:48:57;0.60;99.90
24146;DHT22;12308;50.948;4.706;2022-12-13T15:51:24;0.70;99.90
24146;DHT22;12308;50.948;4.706;2022-12-13T15:54:17;0.70;99.90
24146;DHT22;12308;50.948;4.706;2022-12-13T15:57:11;0.70;99.90
24146;DHT22;12308;50.948;4.706;2022-12-13T15:59:39;0.70;99.90
24146;DHT22;12308;50.948;4.706;2022-12-13T16:02:16;0.70;99.90
24146;DHT22;12308;50.948;4.706;2022-12-13T16:04:42;0.70;99.90
24146;DHT22;12308;50.948;4.706;2022-12-13T16:07:23;0.60;99.90
24146;DHT22;12308;50.948;4.706;2022-12-13T16:09:51;0.60;99.90
24146;DHT22;12308;50.948;4.706;2022-12-13T16:12:30;0.70;99.90
24146;DHT22;12308;50.948;4.706;2022-12-13T16:18:22;0.80;99.90
24146;DHT22;12308;50.948;4.706;2022-12-13T16:20:47;0.60;99.90
24146;DHT22;12308;50.948;4.706;2022-12-13T16:23:15;0.70;99.90
24146;DHT22;12308;50.948;4.706;2022-12-13T16:25:41;0.70;99.90
24146;DHT22;12308;50.948;4.706;2022-12-13T16:28:13;0.60;99.90
24146;DHT22;12308;50.948;4.706;2022-12-13T16:33:21;0.80;99.90
24146;DHT22;12308;50.948;4.706;2022-12-13T16:35:46;0.70;99.90
24146;DHT22;12308;50.948;4.706;2022-12-13T16:38:13;0.60;99.90
24146;DHT22;12308;50.948;4.706;2022-12-13T16:40:39;0.80;99.90
24146;DHT22;12308;50.948;4.706;2022-12-13T16:43:06;0.50;99.90
24146;DHT22;12308;50.948;4.706;2022-12-13T16:45:41;0.40;99.90
24146;DHT22;12308;50.948;4.706;2022-12-13T16:48:11;0.40;99.90
24146;DHT22;12308;50.948;4.706;2022-12-13T16:50:40;0.40;99.90
24146;DHT22;12308;50.948;4.706;2022-12-13T16:53:06;0.50;99.90
24146;DHT22;12308;50.948;4.706;2022-12-13T16:55:32;0.40;99.90
24146;DHT22;12308;50.948;4.706;2022-12-13T16:58:03;0.30;99.90
24146;DHT22;12308;50.948;4.706;2022-12-13T17:00:29;0.30;99.90
24146;DHT22;12308;50.948;4.706;2022-12-13T17:02:57;0.40;99.90
24146;DHT22;12308;50.948;4.706;2022-12-13T17:05:24;0.60;99.90
24146;DHT22;12308;50.948;4.706;2022-12-13T17:07:50;0.60;99.90
24146;DHT22;12308;50.948;4.706;2022-12-13T17:10:16;0.70;99.90
24146;DHT22;12308;50.948;4.706;2022-12-13T17:12:42;0.70;99.90
24146;DHT22;12308;50.948;4.706;2022-12-13T17:15:09;0.90;99.90
24146;DHT22;12308;50.948;4.706;2022-12-13T17:17:36;0.80;99.90
24146;DHT22;12308;50.948;4.706;2022-12-13T17:20:06;0.70;99.90
24146;DHT22;12308;50.948;4.706;2022-12-13T17:22:35;0.80;99.90
24146;DHT22;12308;50.948;4.706;2022-12-13T17:25:02;0.80;99.90
24146;DHT22;12308;50.948;4.706;2022-12-13T17:27:28;0.90;99.90
24146;DHT22;12308;50.948;4.706;2022-12-13T17:29:54;1.00;99.90
24146;DHT22;12308;50.948;4.706;2022-12-13T17:32:20;0.90;99.90
24146;DHT22;12308;50.948;4.706;2022-12-13T17:34:45;0.80;99.90
24146;DHT22;12308;50.948;4.706;2022-12-13T17:37:11;0.90;99.90
24146;DHT22;12308;50.948;4.706;2022-12-13T17:39:37;0.90;99.90
24146;DHT22;12308;50.948;4.706;2022-12-13T17:42:02;0.70;99.90
24146;DHT22;12308;50.948;4.706;2022-12-13T17:44:28;0.80;99.90
24146;DHT22;12308;50.948;4.706;2022-12-13T17:46:54;0.70;99.90